sensor_id;sensor_type;location;lat;lon;timestamp;P1;durP1;ratioP1;P2;durP2;ratioP2
76846;SDS011;65813;49.546;8.644;2022-12-31T05:16:48;1.27;;;1.00;;
76846;SDS011;65813;49.546;8.644;2022-12-31T05:20:49;1.90;;;0.80;;
76846;SDS011;65813;49.546;8.644;2022-12-31T05:24:49;1.97;;;0.90;;
76846;SDS011;65813;49.546;8.644;2022-12-31T05:28:51;2.10;;;1.10;;
76846;SDS011;65813;49.546;8.644;2022-12-31T05:32:51;2.25;;;0.82;;
76846;SDS011;65813;49.546;8.644;2022-12-31T05:36:52;1.97;;;0.90;;
76846;SDS011;65813;49.546;8.644;2022-12-31T05:40:59;1.93;;;1.00;;
76846;SDS011;65813;49.546;8.644;2022-12-31T05:45:00;1.15;;;0.70;;
76846;SDS011;65813;49.546;8.644;2022-12-31T05:49:01;2.35;;;1.10;;
76846;SDS011;65813;49.546;8.644;2022-12-31T05:53:01;2.83;;;1.00;;
76846;SDS011;65813;49.546;8.644;2022-12-31T05:57:02;2.20;;;0.90;;
76846;SDS011;65813;49.546;8.644;2022-12-31T06:01:03;0.80;;;0.63;;
76846;SDS011;65813;49.546;8.644;2022-12-31T06:05:04;1.48;;;0.80;;
76846;SDS011;65813;49.546;8.644;2022-12-31T06:09:05;1.88;;;0.85;;
76846;SDS011;65813;49.546;8.644;2022-12-31T06:13:05;1.23;;;0.60;;
76846;SDS011;65813;49.546;8.644;2022-12-31T06:17:06;1.92;;;1.02;;
76846;SDS011;65813;49.546;8.644;2022-12-31T06:21:07;1.98;;;0.80;;
76846;SDS011;65813;49.546;8.644;2022-12-31T06:25:07;2.13;;;1.00;;
76846;SDS011;65813;49.546;8.644;2022-12-31T06:29:08;1.25;;;0.77;;
76846;SDS011;65813;49.546;8.644;2022-12-31T06:33:09;2.15;;;0.80;;
76846;SDS011;65813;49.546;8.644;2022-12-31T06:37:09;3.67;;;0.80;;
76846;SDS011;65813;49.546;8.644;2022-12-31T06:41:10;1.73;;;0.93;;
76846;SDS011;65813;49.546;8.644;2022-12-31T06:45:13;2.00;;;0.80;;
76846;SDS011;65813;49.546;8.644;2022-12-31T06:49:13;1.97;;;0.87;;
76846;SDS011;65813;49.546;8.644;2022-12-31T06:53:14;1.35;;;0.80;;
76846;SDS011;65813;49.546;8.644;2022-12-31T06:57:14;0.90;;;0.77;;
76846;SDS011;65813;49.546;8.644;2022-12-31T07:01:29;1.48;;;0.80;;
76846;SDS011;65813;49.546;8.644;2022-12-31T07:05:38;1.40;;;0.70;;
76846;SDS011;65813;49.546;8.644;2022-12-31T07:22:35;1.15;;;0.77;;
76846;SDS011;65813;49.546;8.644;2022-12-31T07:30:45;2.40;;;0.90;;
76846;SDS011;65813;49.546;8.644;2022-12-31T07:35:08;1.92;;;1.00;;
76846;SDS011;65813;49.546;8.644;2022-12-31T07:39:15;2.03;;;0.80;;
76846;SDS011;65813;49.546;8.644;2022-12-31T07:47:23;2.20;;;0.80;;
76846;SDS011;65813;49.546;8.644;2022-12-31T07:51:25;1.77;;;0.90;;
76846;SDS011;65813;49.546;8.644;2022-12-31T07:55:26;2.58;;;1.08;;
76846;SDS011;65813;49.546;8.644;2022-12-31T08:08:12;2.25;;;0.90;;
76846;SDS011;65813;49.546;8.644;2022-12-31T08:12:26;1.05;;;0.88;;
76846;SDS011;65813;49.546;8.644;2022-12-31T08:16:30;1.88;;;1.00;;
76846;SDS011;65813;49.546;8.644;2022-12-31T08:20:31;1.77;;;1.05;;
76846;SDS011;65813;49.546;8.644;2022-12-31T08:29:10;2.03;;;1.10;;
76846;SDS011;65813;49.546;8.644;2022-12-31T08:37:27;1.60;;;0.85;;
76846;SDS011;65813;49.546;8.644;2022-12-31T08:46:20;1.98;;;0.90;;
76846;SDS011;65813;49.546;8.644;2022-12-31T08:50:27;2.20;;;1.02;;
76846;SDS011;65813;49.546;8.644;2022-12-31T08:54:28;1.73;;;0.90;;
76846;SDS011;65813;49.546;8.644;2022-12-31T08:58:35;1.98;;;0.93;;
76846;SDS011;65813;49.546;8.644;2022-12-31T09:02:52;2.33;;;1.10;;
76846;SDS011;65813;49.546;8.644;2022-12-31T09:07:01;1.05;;;0.80;;
76846;SDS011;65813;49.546;8.644;2022-12-31T09:15:13;2.30;;;1.10;;
76846;SDS011;65813;49.546;8.644;2022-12-31T09:19:20;2.28;;;1.20;;
76846;SDS011;65813;49.546;8.644;2022-12-31T09:23:20;2.30;;;1.07;;
76846;SDS011;65813;49.546;8.644;2022-12-31T09:27:27;3.08;;;1.30;;
76846;SDS011;65813;49.546;8.644;2022-12-31T09:31:55;2.10;;;0.93;;
76846;SDS011;65813;49.546;8.644;2022-12-31T09:36:05;1.65;;;1.00;;
76846;SDS011;65813;49.546;8.644;2022-12-31T09:45:05;2.72;;;1.02;;
76846;SDS011;65813;49.546;8.644;2022-12-31T09:53:46;2.83;;;0.98;;
76846;SDS011;65813;49.546;8.644;2022-12-31T09:58:14;2.20;;;0.98;;
76846;SDS011;65813;49.546;8.644;2022-12-31T10:11:05;1.77;;;1.02;;
76846;SDS011;65813;49.546;8.644;2022-12-31T10:32:35;2.95;;;1.10;;
76846;SDS011;65813;49.546;8.644;2022-12-31T10:36:51;2.95;;;1.13;;
76846;SDS011;65813;49.546;8.644;2022-12-31T10:49:55;3.00;;;1.20;;
76846;SDS011;65813;49.546;8.644;2022-12-31T10:54:18;2.45;;;1.08;;
76846;SDS011;65813;49.546;8.644;2022-12-31T11:16:32;2.70;;;0.98;;
76846;SDS011;65813;49.546;8.644;2022-12-31T11:20:51;3.78;;;1.50;;
76846;SDS011;65813;49.546;8.644;2022-12-31T11:29:20;2.55;;;1.20;;
76846;SDS011;65813;49.546;8.644;2022-12-31T11:33:46;2.35;;;1.20;;
76846;SDS011;65813;49.546;8.644;2022-12-31T11:38:01;3.15;;;1.08;;
76846;SDS011;65813;49.546;8.644;2022-12-31T11:42:22;2.53;;;1.17;;
76846;SDS011;65813;49.546;8.644;2022-12-31T11:46:42;3.90;;;1.35;;
76846;SDS011;65813;49.546;8.644;2022-12-31T12:03:23;2.67;;;1.25;;
76846;SDS011;65813;49.546;8.644;2022-12-31T12:07:24;3.53;;;1.20;;
76846;SDS011;65813;49.546;8.644;2022-12-31T12:11:26;2.25;;;1.10;;
76846;SDS011;65813;49.546;8.644;2022-12-31T12:15:33;4.30;;;1.30;;
76846;SDS011;65813;49.546;8.644;2022-12-31T12:19:35;2.92;;;1.08;;
76846;SDS011;65813;49.546;8.644;2022-12-31T12:27:56;3.40;;;1.10;;
76846;SDS011;65813;49.546;8.644;2022-12-31T12:32:11;2.50;;;1.02;;
76846;SDS011;65813;49.546;8.644;2022-12-31T12:36:16;2.85;;;1.10;;
76846;SDS011;65813;49.546;8.644;2022-12-31T12:40:21;2.30;;;0.98;;
76846;SDS011;65813;49.546;8.644;2022-12-31T12:44:22;2.78;;;1.20;;
76846;SDS011;65813;49.546;8.644;2022-12-31T12:48:39;2.33;;;1.23;;
76846;SDS011;65813;49.546;8.644;2022-12-31T12:56:59;2.17;;;0.90;;
76846;SDS011;65813;49.546;8.644;2022-12-31T13:10:14;1.58;;;0.90;;
76846;SDS011;65813;49.546;8.644;2022-12-31T13:14:27;3.30;;;1.17;;
76846;SDS011;65813;49.546;8.644;2022-12-31T13:23:06;2.22;;;1.10;;
76846;SDS011;65813;49.546;8.644;2022-12-31T13:31:33;4.15;;;1.33;;
76846;SDS011;65813;49.546;8.644;2022-12-31T13:35:46;3.90;;;1.17;;
76846;SDS011;65813;49.546;8.644;2022-12-31T13:39:55;2.58;;;1.10;;
76846;SDS011;65813;49.546;8.644;2022-12-31T13:44:07;2.47;;;1.23;;
76846;SDS011;65813;49.546;8.644;2022-12-31T13:48:18;2.55;;;1.20;;
76846;SDS011;65813;49.546;8.644;2022-12-31T13:56:35;1.80;;;1.10;;
76846;SDS011;65813;49.546;8.644;2022-12-31T14:00:57;3.00;;;0.98;;
76846;SDS011;65813;49.546;8.644;2022-12-31T14:09:12;2.25;;;1.20;;
76846;SDS011;65813;49.546;8.644;2022-12-31T14:17:49;5.55;;;1.10;;
76846;SDS011;65813;49.546;8.644;2022-12-31T14:22:13;4.38;;;1.17;;
76846;SDS011;65813;49.546;8.644;2022-12-31T14:30:32;1.55;;;0.93;;
76846;SDS011;65813;49.546;8.644;2022-12-31T14:34:44;2.35;;;1.10;;
76846;SDS011;65813;49.546;8.644;2022-12-31T14:47:30;1.20;;;0.70;;
76846;SDS011;65813;49.546;8.644;2022-12-31T14:51:39;2.20;;;0.80;;
76846;SDS011;65813;49.546;8.644;2022-12-31T14:55:40;2.75;;;1.10;;
76846;SDS011;65813;49.546;8.644;2022-12-31T14:59:49;1.80;;;0.80;;
76846;SDS011;65813;49.546;8.644;2022-12-31T15:03:54;3.58;;;1.13;;
76846;SDS011;65813;49.546;8.644;2022-12-31T15:17:09;2.38;;;1.25;;
76846;SDS011;65813;49.546;8.644;2022-12-31T15:25:45;2.65;;;1.20;;
76846;SDS011;65813;49.546;8.644;2022-12-31T15:29:48;3.15;;;1.15;;
76846;SDS011;65813;49.546;8.644;2022-12-31T15:38:34;2.63;;;1.17;;
76846;SDS011;65813;49.546;8.644;2022-12-31T15:42:39;3.42;;;1.60;;
76846;SDS011;65813;49.546;8.644;2022-12-31T15:46:43;4.35;;;2.08;;
76846;SDS011;65813;49.546;8.644;2022-12-31T15:50:46;4.75;;;2.22;;
76846;SDS011;65813;49.546;8.644;2022-12-31T15:54:50;3.92;;;1.92;;
76846;SDS011;65813;49.546;8.644;2022-12-31T15:58:55;3.80;;;1.85;;
76846;SDS011;65813;49.546;8.644;2022-12-31T16:02:58;3.13;;;1.50;;
76846;SDS011;65813;49.546;8.644;2022-12-31T16:06:58;4.10;;;2.10;;
76846;SDS011;65813;49.546;8.644;2022-12-31T16:11:02;4.15;;;1.92;;
76846;SDS011;65813;49.546;8.644;2022-12-31T16:15:04;4.78;;;2.17;;
76846;SDS011;65813;49.546;8.644;2022-12-31T16:19:14;4.47;;;2.00;;
76846;SDS011;65813;49.546;8.644;2022-12-31T16:23:29;4.90;;;2.20;;
76846;SDS011;65813;49.546;8.644;2022-12-31T16:27:29;4.93;;;1.93;;
76846;SDS011;65813;49.546;8.644;2022-12-31T16:31:31;5.00;;;2.08;;
76846;SDS011;65813;49.546;8.644;2022-12-31T16:35:32;2.92;;;1.48;;
76846;SDS011;65813;49.546;8.644;2022-12-31T16:39:36;4.57;;;1.70;;
76846;SDS011;65813;49.546;8.644;2022-12-31T16:43:38;2.88;;;1.50;;
76846;SDS011;65813;49.546;8.644;2022-12-31T16:47:40;2.88;;;1.40;;
76846;SDS011;65813;49.546;8.644;2022-12-31T16:51:42;2.90;;;1.33;;
76846;SDS011;65813;49.546;8.644;2022-12-31T16:55:42;2.75;;;1.50;;
76846;SDS011;65813;49.546;8.644;2022-12-31T16:59:52;2.90;;;1.52;;
76846;SDS011;65813;49.546;8.644;2022-12-31T17:03:57;3.03;;;1.50;;
76846;SDS011;65813;49.546;8.644;2022-12-31T17:08:18;3.85;;;1.38;;
76846;SDS011;65813;49.546;8.644;2022-12-31T17:12:23;2.40;;;1.17;;
76846;SDS011;65813;49.546;8.644;2022-12-31T17:16:26;3.83;;;1.30;;
76846;SDS011;65813;49.546;8.644;2022-12-31T17:20:28;5.72;;;1.85;;
76846;SDS011;65813;49.546;8.644;2022-12-31T17:24:30;5.40;;;2.58;;
76846;SDS011;65813;49.546;8.644;2022-12-31T17:28:36;3.78;;;1.50;;
76846;SDS011;65813;49.546;8.644;2022-12-31T17:32:40;3.88;;;1.90;;
76846;SDS011;65813;49.546;8.644;2022-12-31T17:37:01;5.85;;;2.80;;
76846;SDS011;65813;49.546;8.644;2022-12-31T17:41:25;5.18;;;2.92;;
76846;SDS011;65813;49.546;8.644;2022-12-31T17:45:26;4.55;;;2.28;;
76846;SDS011;65813;49.546;8.644;2022-12-31T17:49:28;3.70;;;2.10;;
76846;SDS011;65813;49.546;8.644;2022-12-31T17:53:29;3.92;;;1.48;;
76846;SDS011;65813;49.546;8.644;2022-12-31T17:57:30;3.90;;;1.70;;
76846;SDS011;65813;49.546;8.644;2022-12-31T18:01:30;3.80;;;1.90;;
76846;SDS011;65813;49.546;8.644;2022-12-31T18:05:30;4.03;;;1.50;;
76846;SDS011;65813;49.546;8.644;2022-12-31T18:09:31;4.30;;;2.00;;
76846;SDS011;65813;49.546;8.644;2022-12-31T18:13:31;4.77;;;1.80;;
76846;SDS011;65813;49.546;8.644;2022-12-31T18:17:31;6.35;;;2.47;;
76846;SDS011;65813;49.546;8.644;2022-12-31T18:21:35;4.30;;;2.15;;
76846;SDS011;65813;49.546;8.644;2022-12-31T18:25:35;5.60;;;1.98;;
76846;SDS011;65813;49.546;8.644;2022-12-31T18:29:35;4.43;;;2.00;;
76846;SDS011;65813;49.546;8.644;2022-12-31T18:33:36;4.43;;;2.00;;
76846;SDS011;65813;49.546;8.644;2022-12-31T18:37:36;4.70;;;1.90;;
76846;SDS011;65813;49.546;8.644;2022-12-31T18:41:40;4.50;;;2.60;;
76846;SDS011;65813;49.546;8.644;2022-12-31T18:45:52;4.25;;;2.00;;
76846;SDS011;65813;49.546;8.644;2022-12-31T18:49:52;4.18;;;2.15;;
76846;SDS011;65813;49.546;8.644;2022-12-31T18:53:53;5.53;;;2.50;;
76846;SDS011;65813;49.546;8.644;2022-12-31T18:57:53;4.07;;;1.63;;
76846;SDS011;65813;49.546;8.644;2022-12-31T19:01:53;4.37;;;1.93;;
76846;SDS011;65813;49.546;8.644;2022-12-31T19:05:54;5.00;;;1.98;;
76846;SDS011;65813;49.546;8.644;2022-12-31T19:09:54;4.93;;;2.00;;
76846;SDS011;65813;49.546;8.644;2022-12-31T19:13:54;4.17;;;2.17;;
76846;SDS011;65813;49.546;8.644;2022-12-31T19:17:55;3.40;;;1.70;;
76846;SDS011;65813;49.546;8.644;2022-12-31T19:21:56;5.70;;;1.98;;
76846;SDS011;65813;49.546;8.644;2022-12-31T19:25:56;5.05;;;1.90;;
76846;SDS011;65813;49.546;8.644;2022-12-31T19:29:57;5.00;;;2.07;;
76846;SDS011;65813;49.546;8.644;2022-12-31T19:33:57;3.50;;;1.90;;
76846;SDS011;65813;49.546;8.644;2022-12-31T19:37:57;4.87;;;1.97;;
76846;SDS011;65813;49.546;8.644;2022-12-31T19:41:58;4.57;;;1.80;;
76846;SDS011;65813;49.546;8.644;2022-12-31T19:46:01;4.00;;;2.20;;
76846;SDS011;65813;49.546;8.644;2022-12-31T19:50:02;4.38;;;2.10;;
76846;SDS011;65813;49.546;8.644;2022-12-31T19:54:03;4.40;;;2.03;;
76846;SDS011;65813;49.546;8.644;2022-12-31T19:58:04;3.88;;;1.83;;
76846;SDS011;65813;49.546;8.644;2022-12-31T20:02:04;3.67;;;1.80;;
76846;SDS011;65813;49.546;8.644;2022-12-31T20:06:06;4.70;;;1.93;;
76846;SDS011;65813;49.546;8.644;2022-12-31T20:10:08;8.05;;;3.50;;
76846;SDS011;65813;49.546;8.644;2022-12-31T20:14:09;4.35;;;2.00;;
76846;SDS011;65813;49.546;8.644;2022-12-31T20:18:10;4.07;;;2.10;;
76846;SDS011;65813;49.546;8.644;2022-12-31T20:22:11;4.73;;;2.60;;
76846;SDS011;65813;49.546;8.644;2022-12-31T20:26:11;4.00;;;2.07;;
76846;SDS011;65813;49.546;8.644;2022-12-31T20:30:12;5.18;;;2.45;;
76846;SDS011;65813;49.546;8.644;2022-12-31T20:34:12;4.20;;;2.10;;
76846;SDS011;65813;49.546;8.644;2022-12-31T20:38:13;4.27;;;2.10;;
76846;SDS011;65813;49.546;8.644;2022-12-31T20:42:13;5.70;;;2.30;;
76846;SDS011;65813;49.546;8.644;2022-12-31T20:46:14;5.43;;;2.17;;
76846;SDS011;65813;49.546;8.644;2022-12-31T20:50:17;5.35;;;2.40;;
76846;SDS011;65813;49.546;8.644;2022-12-31T20:54:18;4.20;;;2.00;;
76846;SDS011;65813;49.546;8.644;2022-12-31T20:58:18;6.80;;;3.53;;
76846;SDS011;65813;49.546;8.644;2022-12-31T21:02:19;5.18;;;2.22;;
76846;SDS011;65813;49.546;8.644;2022-12-31T21:06:21;5.15;;;2.72;;
76846;SDS011;65813;49.546;8.644;2022-12-31T21:10:21;4.47;;;2.65;;
76846;SDS011;65813;49.546;8.644;2022-12-31T21:14:22;4.50;;;2.30;;
76846;SDS011;65813;49.546;8.644;2022-12-31T21:18:22;4.23;;;2.40;;
76846;SDS011;65813;49.546;8.644;2022-12-31T21:22:22;3.90;;;2.23;;
76846;SDS011;65813;49.546;8.644;2022-12-31T21:26:23;4.43;;;2.25;;
76846;SDS011;65813;49.546;8.644;2022-12-31T21:30:23;4.82;;;2.33;;
76846;SDS011;65813;49.546;8.644;2022-12-31T21:34:24;4.53;;;2.20;;
76846;SDS011;65813;49.546;8.644;2022-12-31T21:38:24;6.23;;;2.63;;
76846;SDS011;65813;49.546;8.644;2022-12-31T21:42:25;5.05;;;2.55;;
76846;SDS011;65813;49.546;8.644;2022-12-31T21:46:26;6.63;;;3.00;;
76846;SDS011;65813;49.546;8.644;2022-12-31T21:50:26;5.53;;;3.13;;
76846;SDS011;65813;49.546;8.644;2022-12-31T21:54:26;5.60;;;3.00;;
76846;SDS011;65813;49.546;8.644;2022-12-31T21:58:54;5.18;;;3.13;;
76846;SDS011;65813;49.546;8.644;2022-12-31T22:03:14;5.13;;;2.75;;
76846;SDS011;65813;49.546;8.644;2022-12-31T22:07:23;5.85;;;3.85;;
76846;SDS011;65813;49.546;8.644;2022-12-31T22:11:24;7.23;;;3.83;;
76846;SDS011;65813;49.546;8.644;2022-12-31T23:26:19;22.42;;;15.20;;
76846;SDS011;65813;49.546;8.644;2022-12-31T23:30:19;29.80;;;19.43;;
76846;SDS011;65813;49.546;8.644;2022-12-31T23:34:20;36.40;;;26.00;;
76846;SDS011;65813;49.546;8.644;2022-12-31T23:38:20;43.67;;;27.95;;
76846;SDS011;65813;49.546;8.644;2022-12-31T23:42:21;40.57;;;26.70;;
76846;SDS011;65813;49.546;8.644;2022-12-31T23:46:21;39.78;;;27.98;;
76846;SDS011;65813;49.546;8.644;2022-12-31T23:50:22;41.90;;;27.33;;
76846;SDS011;65813;49.546;8.644;2022-12-31T23:54:22;43.58;;;28.48;;
76846;SDS011;65813;49.546;8.644;2022-12-31T23:58:23;45.87;;;30.73;;
